New Sweden, Texas
Current Conditions -  °F | °C
As of 4:55 PM on Thursday 20 Nov 2014 (Local Time) from KEDC Reporting Station
Light Rain Light Rain  
Wind Chill: 66°   Ceiling: 3000
Heat Index: 66°   Visibility: 2.5mi
Dew Point: 63°   Wind: 6mph
Humidity: 88%   Direction: 190°S
Pressure: 30.02"   Gusts: NA
Location:  30.352°N, 97.5205°W
Report Text: KEDC 202255Z AUTO 19005KT 2 1/2SM -RA SCT023 BKN030 OVC055 19/17 A3002 RMK AO2
Loading
Personal Weather Stations






























Interactive Weather Map New forecast layout! Learn more

10-Day Weather Forecast

Advertisements
Track Severe Weather on mobile